createdAt,value
2023-09-21T00:01:25.003Z,15.76
2023-09-21T00:03:56.558Z,15.67
2023-09-21T00:06:25.528Z,15.77
2023-09-21T00:08:55.293Z,15.56
2023-09-21T00:11:23.860Z,15.71
2023-09-21T00:13:52.068Z,15.60
2023-09-21T00:16:21.359Z,15.63
2023-09-21T00:18:51.172Z,15.76
2023-09-21T00:21:19.636Z,15.44
2023-09-21T00:23:49.668Z,15.73
2023-09-21T00:26:18.244Z,15.83
2023-09-21T00:28:52.594Z,15.55
2023-09-21T00:31:21.129Z,15.72
2023-09-21T00:33:50.842Z,15.56
2023-09-21T00:36:19.647Z,15.72
2023-09-21T00:38:49.797Z,15.81
2023-09-21T00:41:20.255Z,15.62
2023-09-21T00:43:49.906Z,15.68
2023-09-21T00:46:24.004Z,15.60
2023-09-21T00:48:54.535Z,15.70
2023-09-21T00:51:22.892Z,15.72
2023-09-21T00:53:51.706Z,15.57
2023-09-21T00:56:21.537Z,15.52
2023-09-21T00:58:54.968Z,15.30
2023-09-21T01:01:30.181Z,15.42
2023-09-21T01:04:07.408Z,15.06
2023-09-21T01:06:35.982Z,15.20
2023-09-21T01:09:07.861Z,15.33
2023-09-21T01:11:38.882Z,15.39
2023-09-21T01:14:08.212Z,15.39
2023-09-21T01:16:36.483Z,15.40
2023-09-21T01:19:06.192Z,14.94
2023-09-21T01:21:39.148Z,15.13
2023-09-21T01:24:12.443Z,15.43
2023-09-21T01:26:41.281Z,15.27
2023-09-21T01:29:10.632Z,15.25
2023-09-21T01:31:39.476Z,15.30
2023-09-21T01:34:08.526Z,15.29
2023-09-21T01:36:37.164Z,15.16
2023-09-21T01:39:09.346Z,15.16
2023-09-21T01:41:39.062Z,15.22
2023-09-21T01:44:08.633Z,15.13
2023-09-21T01:46:36.908Z,15.33
2023-09-21T01:49:05.660Z,15.28
2023-09-21T01:51:35.307Z,15.33
2023-09-21T01:54:08.287Z,15.38
2023-09-21T01:56:38.147Z,15.38
2023-09-21T01:59:07.112Z,15.22
2023-09-21T02:01:35.808Z,15.32
2023-09-21T02:04:05.664Z,15.37
2023-09-21T02:06:37.040Z,15.47
2023-09-21T02:09:06.809Z,15.39
2023-09-21T02:11:36.293Z,15.31
2023-09-21T02:14:07.127Z,15.54
2023-09-21T02:16:35.476Z,15.43
2023-09-21T02:19:03.820Z,15.18
2023-09-21T02:21:35.632Z,15.44
2023-09-21T02:24:05.949Z,14.86
2023-09-21T02:26:38.376Z,15.50
2023-09-21T02:29:08.122Z,15.06
2023-09-21T02:31:38.476Z,15.67
2023-09-21T02:34:06.781Z,15.72
2023-09-21T02:36:34.955Z,15.52
2023-09-21T02:39:04.587Z,15.63
2023-09-21T02:41:33.344Z,15.70
2023-09-21T02:44:01.582Z,15.12
2023-09-21T02:46:31.401Z,15.48
2023-09-21T02:49:00.098Z,15.68
2023-09-21T02:51:29.665Z,15.69
2023-09-21T02:54:01.077Z,15.68
2023-09-21T02:56:30.573Z,15.39
2023-09-21T02:58:58.829Z,15.55
2023-09-21T03:01:27.070Z,15.41
2023-09-21T03:03:57.051Z,15.52
2023-09-21T03:06:25.459Z,15.19
2023-09-21T03:08:53.734Z,15.17
2023-09-21T03:11:22.014Z,15.51
2023-09-21T03:13:50.288Z,15.47
2023-09-21T03:16:19.149Z,15.31
2023-09-21T03:18:48.851Z,15.37
2023-09-21T03:21:20.128Z,15.36
2023-09-21T03:23:48.547Z,15.53
2023-09-21T03:26:20.159Z,15.53
2023-09-21T03:28:49.400Z,15.49
2023-09-21T03:31:20.040Z,15.33
2023-09-21T03:33:48.629Z,15.42
2023-09-21T03:36:21.477Z,15.46
2023-09-21T03:38:50.601Z,15.18
2023-09-21T03:41:18.922Z,14.99
2023-09-21T03:43:47.974Z,14.77
2023-09-21T03:46:16.502Z,14.88
2023-09-21T03:48:45.447Z,14.86
2023-09-21T03:51:14.509Z,14.87
2023-09-21T03:53:44.173Z,14.75
2023-09-21T03:56:12.746Z,14.67
2023-09-21T03:58:41.274Z,14.91
2023-09-21T04:01:11.011Z,15.04
2023-09-21T04:03:40.078Z,14.82
2023-09-21T04:06:08.866Z,15.15
2023-09-21T04:08:37.521Z,15.20
2023-09-21T04:11:07.719Z,14.90
2023-09-21T04:13:35.963Z,15.17
2023-09-21T04:16:07.371Z,15.24
2023-09-21T04:18:36.394Z,14.75
2023-09-21T04:21:19.776Z,14.99
2023-09-21T04:23:50.339Z,14.86
2023-09-21T04:26:20.567Z,15.06
2023-09-21T04:28:51.538Z,14.72
2023-09-21T04:31:20.975Z,14.64
2023-09-21T04:33:49.449Z,14.81
2023-09-21T04:36:17.793Z,14.82
2023-09-21T04:38:49.946Z,14.65
2023-09-21T04:41:20.233Z,14.68
2023-09-21T04:43:49.588Z,14.58
2023-09-21T04:46:18.755Z,13.82
2023-09-21T04:48:47.751Z,14.22
2023-09-21T04:51:17.347Z,14.23
2023-09-21T04:53:46.778Z,14.12
2023-09-21T04:56:15.276Z,13.94
2023-09-21T04:58:45.279Z,14.08
2023-09-21T05:01:14.087Z,14.32
2023-09-21T05:03:43.877Z,13.99
2023-09-21T05:06:12.386Z,14.11
2023-09-21T05:08:40.611Z,14.17
2023-09-21T05:11:08.824Z,14.14
2023-09-21T05:13:37.877Z,13.84
2023-09-21T05:16:08.103Z,13.98
2023-09-21T05:18:36.334Z,14.17
2023-09-21T05:21:06.104Z,13.81
2023-09-21T05:23:35.274Z,13.66
2023-09-21T05:26:04.434Z,13.64
2023-09-21T05:28:32.767Z,13.54
2023-09-21T05:31:01.661Z,13.53
2023-09-21T05:33:33.182Z,13.43
2023-09-21T05:36:06.232Z,13.16
2023-09-21T05:38:34.880Z,13.16
2023-09-21T05:41:05.262Z,13.29
2023-09-21T05:43:33.978Z,13.12
2023-09-21T05:46:02.354Z,13.44
2023-09-21T05:48:32.442Z,13.20
2023-09-21T05:51:03.033Z,13.35
2023-09-21T05:53:32.440Z,13.33
2023-09-21T05:56:00.760Z,13.27
2023-09-21T05:58:31.103Z,13.58
2023-09-21T06:01:00.963Z,13.26
2023-09-21T06:03:29.513Z,13.53
2023-09-21T06:05:59.278Z,13.49
2023-09-21T06:08:28.653Z,13.49
2023-09-21T06:10:58.145Z,13.40
2023-09-21T06:13:27.200Z,13.45
2023-09-21T06:15:55.402Z,13.59
2023-09-21T06:18:24.528Z,13.36
2023-09-21T06:20:56.386Z,13.32
2023-09-21T06:23:26.204Z,12.82
2023-09-21T06:25:55.396Z,13.28
2023-09-21T06:28:23.688Z,13.47
2023-09-21T06:30:52.652Z,13.43
2023-09-21T06:33:25.392Z,13.50
2023-09-21T06:35:54.034Z,13.44
2023-09-21T06:38:22.979Z,13.64
2023-09-21T06:40:52.521Z,13.62
2023-09-21T06:43:21.315Z,12.58
2023-09-21T06:45:49.608Z,12.29
2023-09-21T06:48:18.068Z,11.94
2023-09-21T06:50:49.342Z,12.07
2023-09-21T06:53:17.858Z,12.34
2023-09-21T06:55:46.039Z,12.30
2023-09-21T06:58:15.826Z,12.04
2023-09-21T07:00:45.030Z,12.47
2023-09-21T07:03:13.851Z,12.29
2023-09-21T07:05:43.933Z,12.41
2023-09-21T07:08:12.300Z,12.46
2023-09-21T07:10:40.500Z,12.70
2023-09-21T07:13:10.132Z,12.55
2023-09-21T07:15:39.919Z,12.78
2023-09-21T07:18:08.723Z,12.89
2023-09-21T07:20:37.274Z,12.86
2023-09-21T07:23:05.757Z,12.91
2023-09-21T07:25:34.134Z,13.17
2023-09-21T07:28:02.283Z,12.98
2023-09-21T07:30:32.522Z,13.35
2023-09-21T07:33:02.761Z,13.21
2023-09-21T07:35:31.591Z,13.21
2023-09-21T07:38:02.021Z,13.34
2023-09-21T07:40:32.512Z,13.46
2023-09-21T07:43:01.062Z,13.49
2023-09-21T07:45:32.131Z,13.60
2023-09-21T07:48:02.062Z,13.61
2023-09-21T07:50:35.915Z,13.67
2023-09-21T07:53:05.384Z,13.99
2023-09-21T07:55:35.227Z,13.99
2023-09-21T07:58:03.743Z,13.89
2023-09-21T08:00:32.053Z,14.09
2023-09-21T08:03:01.948Z,13.89
2023-09-21T08:05:32.175Z,13.80
2023-09-21T08:08:01.216Z,14.19
2023-09-21T08:10:33.182Z,14.30
2023-09-21T08:13:03.418Z,14.26
2023-09-21T08:15:32.042Z,14.35
2023-09-21T08:18:02.323Z,14.15
2023-09-21T08:20:30.875Z,14.31
2023-09-21T08:22:59.053Z,14.46
2023-09-21T08:25:27.393Z,14.42
2023-09-21T08:27:57.176Z,14.40
2023-09-21T08:30:25.706Z,13.87
2023-09-21T08:32:54.173Z,14.36
2023-09-21T08:35:23.931Z,14.18
2023-09-21T08:37:52.468Z,14.44
2023-09-21T08:40:22.912Z,14.50
2023-09-21T08:42:56.861Z,14.48
2023-09-21T08:45:26.653Z,14.50
2023-09-21T08:47:56.614Z,14.40
2023-09-21T08:50:28.201Z,14.56
2023-09-21T08:52:58.937Z,14.50
2023-09-21T08:55:28.183Z,14.45
2023-09-21T08:57:57.544Z,14.46
2023-09-21T09:00:30.198Z,14.27
2023-09-21T09:02:59.908Z,14.31
2023-09-21T09:05:29.661Z,14.51
2023-09-21T09:07:58.270Z,14.24
2023-09-21T09:10:26.698Z,14.29
2023-09-21T09:13:07.686Z,14.51
2023-09-21T09:15:38.634Z,14.47
2023-09-21T09:18:07.736Z,14.36
2023-09-21T09:20:38.771Z,14.51
2023-09-21T09:23:11.468Z,14.45
2023-09-21T09:25:40.587Z,14.42
2023-09-21T09:28:10.186Z,14.31
2023-09-21T09:30:38.984Z,13.95
2023-09-21T09:33:11.108Z,13.86
2023-09-21T09:35:42.475Z,14.17
2023-09-21T09:38:11.568Z,13.98
2023-09-21T09:40:40.530Z,13.36
2023-09-21T09:43:10.012Z,13.51
2023-09-21T09:45:40.119Z,13.49
2023-09-21T09:48:14.125Z,13.36
2023-09-21T09:50:44.349Z,13.32
2023-09-21T09:53:14.672Z,13.29
2023-09-21T09:55:45.032Z,13.49
2023-09-21T09:58:16.404Z,13.26
2023-09-21T10:00:46.227Z,13.30
2023-09-21T10:03:15.763Z,13.46
2023-09-21T10:05:47.361Z,13.51
2023-09-21T10:08:16.597Z,13.55
2023-09-21T10:10:48.729Z,13.52
2023-09-21T10:13:18.164Z,13.44
2023-09-21T10:15:52.948Z,13.50
2023-09-21T10:18:36.556Z,13.74
2023-09-21T10:21:25.842Z,13.69
2023-09-21T10:24:05.097Z,13.59
2023-09-21T10:26:36.262Z,13.51
2023-09-21T10:29:05.516Z,13.67
2023-09-21T10:31:35.077Z,13.77
2023-09-21T10:34:11.356Z,13.81
2023-09-21T10:36:47.599Z,14.17
2023-09-21T10:39:27.680Z,14.11
2023-09-21T10:41:58.702Z,13.87
2023-09-21T10:45:03.649Z,13.89
2023-09-21T10:47:40.128Z,13.94
2023-09-21T10:50:12.509Z,13.88
2023-09-21T10:52:46.919Z,13.86
2023-09-21T10:55:17.862Z,13.90
2023-09-21T10:57:48.319Z,13.99
2023-09-21T11:00:19.570Z,13.76
2023-09-21T11:02:51.152Z,13.50
2023-09-21T11:05:22.483Z,12.98
2023-09-21T11:07:53.732Z,13.13
2023-09-21T11:10:22.208Z,13.14
2023-09-21T11:12:50.776Z,13.13
2023-09-21T11:15:19.774Z,13.56
2023-09-21T11:17:49.311Z,13.74
2023-09-21T11:20:21.885Z,13.92
2023-09-21T11:22:53.069Z,14.14
2023-09-21T11:25:24.218Z,14.20
2023-09-21T11:27:53.235Z,14.40
2023-09-21T11:30:24.248Z,14.62
2023-09-21T11:32:55.344Z,14.74
2023-09-21T11:35:25.031Z,14.78
2023-09-21T11:37:55.725Z,14.78
2023-09-21T11:40:24.678Z,14.66
2023-09-21T11:42:59.150Z,14.71
2023-09-21T11:45:29.210Z,14.78
2023-09-21T11:47:59.751Z,14.78
2023-09-21T11:50:33.294Z,14.96
2023-09-21T11:53:08.073Z,14.91
2023-09-21T11:55:37.935Z,14.76
2023-09-21T11:58:11.013Z,14.97
2023-09-21T12:00:51.302Z,15.08
2023-09-21T12:03:25.099Z,15.17
2023-09-21T12:05:57.222Z,15.26
2023-09-21T12:08:28.159Z,15.51
2023-09-21T12:10:56.592Z,15.62
2023-09-21T12:13:25.067Z,15.67
2023-09-21T12:15:58.385Z,15.68
2023-09-21T12:18:29.856Z,15.72
2023-09-21T12:20:59.331Z,15.66
2023-09-21T12:23:29.528Z,15.60
2023-09-21T12:25:58.053Z,15.43
2023-09-21T12:28:26.408Z,15.66
2023-09-21T12:30:56.066Z,15.69
2023-09-21T12:35:55.722Z,15.66
2023-09-21T12:38:24.144Z,15.70
2023-09-21T12:40:55.820Z,15.57
2023-09-21T12:43:24.301Z,15.69
2023-09-21T12:45:52.572Z,15.75
2023-09-21T12:48:20.953Z,15.98
2023-09-21T12:50:49.308Z,16.12
2023-09-21T12:53:17.528Z,16.00
2023-09-21T12:55:45.676Z,16.14
2023-09-21T12:58:15.554Z,16.14
2023-09-21T13:00:46.287Z,16.13
2023-09-21T13:03:15.434Z,15.94
2023-09-21T13:05:46.345Z,15.80
2023-09-21T13:08:14.990Z,15.91
2023-09-21T13:10:44.667Z,15.89
2023-09-21T13:13:14.415Z,15.87
2023-09-21T13:15:43.706Z,16.02
2023-09-21T13:18:15.287Z,16.15
2023-09-21T13:20:44.247Z,16.17
2023-09-21T13:23:12.389Z,16.00
2023-09-21T13:25:41.484Z,16.16
2023-09-21T13:28:10.087Z,15.94
2023-09-21T13:30:39.957Z,15.80
2023-09-21T13:33:11.179Z,15.86
2023-09-21T13:35:39.683Z,15.63
2023-09-21T13:38:08.100Z,14.92
2023-09-21T13:40:36.388Z,15.44
2023-09-21T13:43:05.393Z,15.32
2023-09-21T13:45:36.011Z,15.24
2023-09-21T13:48:07.468Z,15.27
2023-09-21T13:50:36.603Z,15.25
2023-09-21T13:53:06.059Z,15.37
2023-09-21T13:55:35.601Z,15.16
2023-09-21T13:58:04.142Z,15.15
2023-09-21T14:00:34.732Z,15.07
2023-09-21T14:03:03.388Z,15.08
2023-09-21T14:05:33.469Z,14.97
2023-09-21T14:08:01.986Z,14.99
2023-09-21T14:10:31.059Z,14.68
2023-09-21T14:12:59.566Z,14.82
2023-09-21T14:15:27.807Z,14.74
2023-09-21T14:17:56.090Z,15.02
2023-09-21T14:20:24.542Z,14.82
2023-09-21T14:22:56.239Z,14.91
2023-09-21T14:25:24.425Z,14.76
2023-09-21T14:27:52.714Z,14.81
2023-09-21T14:30:21.105Z,14.52
2023-09-21T14:32:53.882Z,14.71
2023-09-21T14:35:22.571Z,14.66
2023-09-21T14:37:50.863Z,14.41
2023-09-21T14:40:21.117Z,14.75
2023-09-21T14:42:49.382Z,14.31
2023-09-21T14:45:20.070Z,14.60
2023-09-21T14:47:48.478Z,14.55
2023-09-21T14:50:17.815Z,14.18
2023-09-21T14:52:46.494Z,14.23
2023-09-21T14:55:15.508Z,14.20
2023-09-21T14:57:45.152Z,14.18
2023-09-21T15:00:18.023Z,14.20
2023-09-21T15:02:46.312Z,13.69
2023-09-21T15:05:14.643Z,14.15
2023-09-21T15:07:42.982Z,14.21
2023-09-21T15:10:12.159Z,14.02
2023-09-21T15:12:41.385Z,13.55
2023-09-21T15:15:12.998Z,14.16
2023-09-21T15:17:41.439Z,13.91
2023-09-21T15:20:10.494Z,14.13
2023-09-21T15:22:38.766Z,13.93
2023-09-21T15:25:08.177Z,14.00
2023-09-21T15:27:36.712Z,13.75
2023-09-21T15:30:05.884Z,14.16
2023-09-21T15:32:35.903Z,14.28
2023-09-21T15:35:04.232Z,14.30
2023-09-21T15:37:34.778Z,14.25
2023-09-21T15:40:05.660Z,14.23
2023-09-21T15:42:34.179Z,14.35
2023-09-21T15:45:02.682Z,14.31
2023-09-21T15:47:30.875Z,14.37
2023-09-21T15:50:00.420Z,14.35
2023-09-21T15:52:29.196Z,14.10
2023-09-21T15:54:57.648Z,13.92
2023-09-21T15:57:26.028Z,14.28
2023-09-21T15:59:54.446Z,14.21
2023-09-21T16:02:22.639Z,14.24
2023-09-21T16:04:51.485Z,14.23
2023-09-21T16:07:21.155Z,14.13
2023-09-21T16:09:49.490Z,14.03
2023-09-21T16:12:17.997Z,13.79
2023-09-21T16:14:46.700Z,13.89
2023-09-21T16:17:14.966Z,13.66
2023-09-21T16:19:43.205Z,13.74
2023-09-21T16:22:11.572Z,13.81
2023-09-21T16:24:41.281Z,13.60
2023-09-21T16:27:09.819Z,13.78
2023-09-21T16:29:38.138Z,13.76
2023-09-21T16:32:06.684Z,13.79
2023-09-21T16:34:35.002Z,13.49
2023-09-21T16:37:03.866Z,13.18
2023-09-21T16:39:33.013Z,13.54
2023-09-21T16:42:02.638Z,13.28
2023-09-21T16:44:31.887Z,13.47
2023-09-21T16:47:00.501Z,13.67
2023-09-21T16:49:29.235Z,13.47
2023-09-21T16:51:58.315Z,13.46
2023-09-21T16:54:26.651Z,13.52
2023-09-21T16:56:55.895Z,13.72
2023-09-21T16:59:25.559Z,13.39
2023-09-21T17:01:53.986Z,13.69
2023-09-21T17:04:22.324Z,13.66
2023-09-21T17:06:50.744Z,13.75
2023-09-21T17:09:19.172Z,13.88
2023-09-21T17:11:47.498Z,13.69
2023-09-21T17:14:15.812Z,13.80
2023-09-21T17:16:45.743Z,13.79
2023-09-21T17:19:14.885Z,13.78
2023-09-21T17:21:44.397Z,13.72
2023-09-21T17:24:12.711Z,13.79
2023-09-21T17:26:41.926Z,13.61
2023-09-21T17:29:10.841Z,13.76
2023-09-21T17:31:39.202Z,13.57
2023-09-21T17:34:08.882Z,13.65
2023-09-21T17:36:37.162Z,13.62
2023-09-21T17:39:06.113Z,13.60
2023-09-21T17:41:35.298Z,13.56
2023-09-21T17:44:03.532Z,13.09
2023-09-21T17:46:32.621Z,13.28
2023-09-21T17:49:00.918Z,13.34
2023-09-21T17:51:30.624Z,13.34
2023-09-21T17:53:58.965Z,13.53
2023-09-21T17:56:27.229Z,13.46
2023-09-21T17:58:55.639Z,13.50
2023-09-21T18:01:27.225Z,13.25
2023-09-21T18:03:56.188Z,13.25
2023-09-21T18:06:24.663Z,13.51
2023-09-21T18:08:54.331Z,13.32
2023-09-21T18:11:22.549Z,13.24
2023-09-21T18:13:50.799Z,13.26
2023-09-21T18:16:19.111Z,13.25
2023-09-21T18:18:47.907Z,13.24
2023-09-21T18:21:16.298Z,13.23
2023-09-21T18:23:45.016Z,13.27
2023-09-21T18:26:15.582Z,13.36
2023-09-21T18:28:44.208Z,13.32
2023-09-21T18:31:13.070Z,13.23
2023-09-21T18:33:42.282Z,13.22
2023-09-21T18:36:11.084Z,13.08
2023-09-21T18:38:39.337Z,12.88
2023-09-21T18:41:07.730Z,12.97
2023-09-21T18:43:38.679Z,12.94
2023-09-21T18:46:07.078Z,12.93
2023-09-21T18:48:35.897Z,12.63
2023-09-21T18:51:04.345Z,12.98
2023-09-21T18:53:32.650Z,13.10
2023-09-21T18:56:00.897Z,12.93
2023-09-21T18:58:29.092Z,12.69
2023-09-21T19:00:58.876Z,12.80
2023-09-21T19:03:27.477Z,12.97
2023-09-21T19:05:55.775Z,13.05
2023-09-21T19:08:24.298Z,12.97
2023-09-21T19:10:52.789Z,12.73
2023-09-21T19:13:21.636Z,12.45
2023-09-21T19:15:50.162Z,13.08
2023-09-21T19:18:19.932Z,13.03
2023-09-21T19:20:48.140Z,12.94
2023-09-21T19:23:16.766Z,12.97
2023-09-21T19:25:44.984Z,12.55
2023-09-21T19:28:13.388Z,12.45
2023-09-21T19:30:41.819Z,12.82
2023-09-21T19:33:10.129Z,12.80
2023-09-21T19:35:39.766Z,12.93
2023-09-21T19:38:08.499Z,12.79
2023-09-21T19:40:36.791Z,12.68
2023-09-21T19:43:05.990Z,12.72
2023-09-21T19:45:34.269Z,12.70
2023-09-21T19:48:02.700Z,12.32
2023-09-21T19:50:31.163Z,12.62
2023-09-21T19:53:00.728Z,12.61
2023-09-21T19:55:29.257Z,12.61
2023-09-21T19:57:57.553Z,12.56
2023-09-21T20:00:26.538Z,12.75
2023-09-21T20:02:55.151Z,12.85
2023-09-21T20:05:23.747Z,12.83
2023-09-21T20:07:52.062Z,12.68
2023-09-21T20:10:22.098Z,12.48
2023-09-21T20:12:50.671Z,12.66
2023-09-21T20:15:19.205Z,12.60
2023-09-21T20:17:48.436Z,12.68
2023-09-21T20:20:16.960Z,12.61
2023-09-21T20:22:45.330Z,11.27
2023-09-21T20:25:13.719Z,11.60
2023-09-21T20:27:43.495Z,12.06
2023-09-21T20:30:13.139Z,12.05
2023-09-21T20:32:41.863Z,11.91
2023-09-21T20:35:10.456Z,12.17
2023-09-21T20:37:38.787Z,11.45
2023-09-21T20:40:09.120Z,12.17
2023-09-21T20:42:37.459Z,11.98
2023-09-21T20:45:12.529Z,11.65
2023-09-21T20:47:41.134Z,11.45
2023-09-21T20:50:11.059Z,11.74
2023-09-21T20:52:39.970Z,11.80
2023-09-21T20:55:08.823Z,11.63
2023-09-21T20:57:37.267Z,11.23
2023-09-21T21:00:10.254Z,11.02
2023-09-21T21:02:38.660Z,11.49
2023-09-21T21:05:07.381Z,11.62
2023-09-21T21:07:36.294Z,11.57
2023-09-21T21:10:06.309Z,11.44
2023-09-21T21:12:35.079Z,11.35
2023-09-21T21:15:04.389Z,11.63
2023-09-21T21:17:34.401Z,11.80
2023-09-21T21:20:04.476Z,11.67
2023-09-21T21:22:33.397Z,11.59
2023-09-21T21:25:01.748Z,11.66
2023-09-21T21:27:30.086Z,11.59
2023-09-21T21:29:58.304Z,11.48
2023-09-21T21:32:26.567Z,11.74
2023-09-21T21:34:56.069Z,11.91
2023-09-21T21:37:24.904Z,11.93
2023-09-21T21:39:53.113Z,11.48
2023-09-21T21:42:21.755Z,11.58
2023-09-21T21:44:51.525Z,11.37
2023-09-21T21:47:19.807Z,11.32
2023-09-21T21:49:48.008Z,11.30
2023-09-21T21:52:17.578Z,11.07
2023-09-21T21:54:45.823Z,10.85
2023-09-21T21:57:15.137Z,11.06
2023-09-21T21:59:43.668Z,10.82
2023-09-21T22:02:11.904Z,10.85
2023-09-21T22:04:41.240Z,10.79
2023-09-21T22:07:09.671Z,10.54
2023-09-21T22:09:42.069Z,10.62
2023-09-21T22:12:12.149Z,10.49
2023-09-21T22:14:41.190Z,10.51
2023-09-21T22:17:09.617Z,10.42
2023-09-21T22:19:37.912Z,10.57
2023-09-21T22:22:06.042Z,10.45
2023-09-21T22:24:34.687Z,10.41
2023-09-21T22:27:04.287Z,10.51
2023-09-21T22:29:31.573Z,10.81
2023-09-21T22:31:59.839Z,10.66
2023-09-21T22:34:28.121Z,10.94
2023-09-21T22:36:57.177Z,10.97
2023-09-21T22:39:25.483Z,10.83
2023-09-21T22:41:53.692Z,10.59
2023-09-21T22:44:23.276Z,10.77
2023-09-21T22:46:51.990Z,10.81
2023-09-21T22:49:20.591Z,10.71
2023-09-21T22:51:49.247Z,10.68
2023-09-21T22:54:17.551Z,10.64
2023-09-21T22:56:45.682Z,10.62
2023-09-21T22:59:13.998Z,10.66
2023-09-21T23:01:43.854Z,10.39
2023-09-21T23:04:13.602Z,10.49
2023-09-21T23:06:42.388Z,10.68
2023-09-21T23:09:11.238Z,10.44
2023-09-21T23:11:40.604Z,10.11
2023-09-21T23:14:10.426Z,9.65
2023-09-21T23:16:39.029Z,10.05
2023-09-21T23:19:09.115Z,10.14
2023-09-21T23:21:37.685Z,10.07
2023-09-21T23:24:11.299Z,10.29
2023-09-21T23:26:40.301Z,9.98
2023-09-21T23:29:09.837Z,9.79
2023-09-21T23:31:39.066Z,9.95
2023-09-21T23:34:08.956Z,9.86
2023-09-21T23:36:37.629Z,9.72
2023-09-21T23:39:13.720Z,9.67
2023-09-21T23:41:43.023Z,9.62
2023-09-21T23:44:13.151Z,9.72
2023-09-21T23:46:45.908Z,9.66
2023-09-21T23:49:16.874Z,9.78
2023-09-21T23:51:45.078Z,9.67
2023-09-21T23:54:14.106Z,9.71
2023-09-21T23:56:42.343Z,9.45
2023-09-21T23:59:10.608Z,9.35
